KSPF/SPF METAR and TAF weather

Enter ICAO airport designator
Station Type Date Time Source
KSPF METAR 2020/08/10 18:35 UTC NOAA

KSPF 101835Z AUTO VRB03KT 7SM CLR 23/09 A3010 RMK AO2 PWINO


Station Type Date Time Source
KSPF Decoded METAR 2020/08/10 18:35 UTC NOAA

Spearfish / Clyde Ice, SD, United States (KSPF) 44-29N 103-47W
Aug 10, 2020 - 02:35 PM EDT / 2020.08.10 1835 UTC
Wind: Variable at 3 MPH (3 KT):0
Visibility: 7 mile(s):0
Sky conditions: clear
Temperature: 73 F (23 C)
Dew Point: 48 F (9 C)
Relative Humidity: 40%
Pressure (altimeter): 30.1 in. Hg (1019 hPa)
ob: KSPF 101835Z AUTO VRB03KT 7SM CLR 23/09 A3010 RMK AO2 PWINO
cycle: 18

Station Type Date Time Source
KSPF TAF UTC NOAA

Error!

Example: see airport list